Ravenna, Ohio
Current Conditions -  °F | °C
As of 4:42 AM on Thursday 18 Dec 2014 (Local Time) from KPOV Reporting Station
NA  
Wind Chill: 21°   Ceiling: NA
Heat Index: 28°   Visibility: 10mi
Dew Point: 19°   Wind: 7mph
Humidity: 70%   Direction: 260°W
Pressure: 30.15"   Gusts: NA
Location:  41.16°N, 81.24°W
Report Text: KPOV 180942Z AUTO 26006KT 10SM M02/M07 A3015 RMK AO2 T10231071
Loading
Personal Weather Stations






























Interactive Weather Map New forecast layout! Learn more

10-Day Weather Forecast

Advertisements
Track Severe Weather on mobile